sensor_id;sensor_type;location;lat;lon;timestamp;temperature;humidity
62575;DHT22;53112;45.602;11.904;2023-05-07T00:00:21;27.50;48.20
62575;DHT22;53112;45.602;11.904;2023-05-07T00:02:47;27.50;48.20
62575;DHT22;53112;45.602;11.904;2023-05-07T00:05:13;27.50;48.00
62575;DHT22;53112;45.602;11.904;2023-05-07T00:07:40;27.50;48.10
62575;DHT22;53112;45.602;11.904;2023-05-07T00:10:06;27.50;48.10
62575;DHT22;53112;45.602;11.904;2023-05-07T00:12:33;27.50;48.20
62575;DHT22;53112;45.602;11.904;2023-05-07T00:15:02;27.50;48.10
62575;DHT22;53112;45.602;11.904;2023-05-07T00:17:29;27.50;48.10
62575;DHT22;53112;45.602;11.904;2023-05-07T00:19:55;27.50;48.10
62575;DHT22;53112;45.602;11.904;2023-05-07T00:22:21;27.50;48.10
62575;DHT22;53112;45.602;11.904;2023-05-07T00:24:47;27.40;48.00
62575;DHT22;53112;45.602;11.904;2023-05-07T00:27:13;27.40;48.00
62575;DHT22;53112;45.602;11.904;2023-05-07T00:29:39;27.40;47.90
62575;DHT22;53112;45.602;11.904;2023-05-07T00:32:05;27.40;47.90
62575;DHT22;53112;45.602;11.904;2023-05-07T00:34:31;27.50;47.90
62575;DHT22;53112;45.602;11.904;2023-05-07T00:36:57;27.50;47.90
62575;DHT22;53112;45.602;11.904;2023-05-07T00:39:22;27.40;47.90
62575;DHT22;53112;45.602;11.904;2023-05-07T00:41:48;27.40;47.90
62575;DHT22;53112;45.602;11.904;2023-05-07T00:44:14;27.40;47.90
62575;DHT22;53112;45.602;11.904;2023-05-07T00:46:40;27.40;47.90
62575;DHT22;53112;45.602;11.904;2023-05-07T00:49:06;27.40;47.80
62575;DHT22;53112;45.602;11.904;2023-05-07T00:51:33;27.40;47.90
62575;DHT22;53112;45.602;11.904;2023-05-07T00:54:00;27.40;47.90
62575;DHT22;53112;45.602;11.904;2023-05-07T00:56:27;27.40;48.00
62575;DHT22;53112;45.602;11.904;2023-05-07T00:58:53;27.40;48.00
62575;DHT22;53112;45.602;11.904;2023-05-07T01:01:20;27.40;48.00
62575;DHT22;53112;45.602;11.904;2023-05-07T01:03:45;27.40;48.00
62575;DHT22;53112;45.602;11.904;2023-05-07T01:06:12;27.40;47.90
62575;DHT22;53112;45.602;11.904;2023-05-07T01:08:42;27.40;47.90
62575;DHT22;53112;45.602;11.904;2023-05-07T01:11:09;27.40;47.90
62575;DHT22;53112;45.602;11.904;2023-05-07T01:13:36;27.30;47.90
62575;DHT22;53112;45.602;11.904;2023-05-07T01:16:03;27.40;47.80
62575;DHT22;53112;45.602;11.904;2023-05-07T01:18:29;27.30;47.80
62575;DHT22;53112;45.602;11.904;2023-05-07T01:20:58;27.30;47.70
62575;DHT22;53112;45.602;11.904;2023-05-07T01:23:26;27.30;47.80
62575;DHT22;53112;45.602;11.904;2023-05-07T01:25:54;27.30;47.70
62575;DHT22;53112;45.602;11.904;2023-05-07T01:28:20;27.30;47.70
62575;DHT22;53112;45.602;11.904;2023-05-07T01:30:51;27.30;47.70
62575;DHT22;53112;45.602;11.904;2023-05-07T01:33:20;27.30;47.70
62575;DHT22;53112;45.602;11.904;2023-05-07T01:35:50;27.30;47.70
62575;DHT22;53112;45.602;11.904;2023-05-07T01:38:18;27.20;47.60
62575;DHT22;53112;45.602;11.904;2023-05-07T01:40:44;27.20;47.60
62575;DHT22;53112;45.602;11.904;2023-05-07T01:43:12;27.20;47.60
62575;DHT22;53112;45.602;11.904;2023-05-07T01:45:38;27.20;47.60
62575;DHT22;53112;45.602;11.904;2023-05-07T01:48:08;27.20;47.60
62575;DHT22;53112;45.602;11.904;2023-05-07T01:50:36;27.20;47.70
62575;DHT22;53112;45.602;11.904;2023-05-07T01:53:03;27.20;47.60
62575;DHT22;53112;45.602;11.904;2023-05-07T01:55:29;27.20;47.60
62575;DHT22;53112;45.602;11.904;2023-05-07T01:57:54;27.20;47.60
62575;DHT22;53112;45.602;11.904;2023-05-07T02:00:21;27.20;47.60
62575;DHT22;53112;45.602;11.904;2023-05-07T02:02:47;27.20;47.60
62575;DHT22;53112;45.602;11.904;2023-05-07T02:05:13;27.10;47.70
62575;DHT22;53112;45.602;11.904;2023-05-07T02:07:38;27.10;47.70
62575;DHT22;53112;45.602;11.904;2023-05-07T02:10:05;27.20;47.70
62575;DHT22;53112;45.602;11.904;2023-05-07T02:12:31;27.10;47.70
62575;DHT22;53112;45.602;11.904;2023-05-07T02:14:57;27.10;47.70
62575;DHT22;53112;45.602;11.904;2023-05-07T02:17:24;27.10;47.80
62575;DHT22;53112;45.602;11.904;2023-05-07T02:19:49;27.10;47.70
62575;DHT22;53112;45.602;11.904;2023-05-07T02:22:15;27.10;47.80
62575;DHT22;53112;45.602;11.904;2023-05-07T02:24:41;27.10;47.70
62575;DHT22;53112;45.602;11.904;2023-05-07T02:27:07;27.10;47.70
62575;DHT22;53112;45.602;11.904;2023-05-07T02:29:33;27.10;47.70
62575;DHT22;53112;45.602;11.904;2023-05-07T02:31:59;27.10;47.60
62575;DHT22;53112;45.602;11.904;2023-05-07T02:34:28;27.10;47.60
62575;DHT22;53112;45.602;11.904;2023-05-07T02:36:54;27.10;47.60
62575;DHT22;53112;45.602;11.904;2023-05-07T02:39:21;27.10;47.70
62575;DHT22;53112;45.602;11.904;2023-05-07T02:41:47;27.10;47.60
62575;DHT22;53112;45.602;11.904;2023-05-07T02:44:13;27.10;47.60
62575;DHT22;53112;45.602;11.904;2023-05-07T02:46:39;27.10;47.80
62575;DHT22;53112;45.602;11.904;2023-05-07T02:49:05;27.10;47.90
62575;DHT22;53112;45.602;11.904;2023-05-07T02:51:31;27.10;47.90
62575;DHT22;53112;45.602;11.904;2023-05-07T02:53:57;27.10;48.10
62575;DHT22;53112;45.602;11.904;2023-05-07T02:56:26;27.10;48.00
62575;DHT22;53112;45.602;11.904;2023-05-07T02:58:52;27.10;47.90
62575;DHT22;53112;45.602;11.904;2023-05-07T03:01:18;27.10;48.00
62575;DHT22;53112;45.602;11.904;2023-05-07T03:03:44;27.10;47.80
62575;DHT22;53112;45.602;11.904;2023-05-07T03:06:10;27.00;47.70
62575;DHT22;53112;45.602;11.904;2023-05-07T03:08:36;27.00;47.70
62575;DHT22;53112;45.602;11.904;2023-05-07T03:11:02;27.00;47.60
62575;DHT22;53112;45.602;11.904;2023-05-07T03:13:28;27.00;47.70
62575;DHT22;53112;45.602;11.904;2023-05-07T03:15:54;27.00;47.60
62575;DHT22;53112;45.602;11.904;2023-05-07T03:18:20;27.00;47.60
62575;DHT22;53112;45.602;11.904;2023-05-07T03:20:47;27.00;47.60
62575;DHT22;53112;45.602;11.904;2023-05-07T03:23:13;27.00;47.60
62575;DHT22;53112;45.602;11.904;2023-05-07T03:25:39;27.00;47.60
62575;DHT22;53112;45.602;11.904;2023-05-07T03:28:05;27.00;47.50
62575;DHT22;53112;45.602;11.904;2023-05-07T03:30:31;27.00;47.50
62575;DHT22;53112;45.602;11.904;2023-05-07T03:32:57;27.00;47.50
62575;DHT22;53112;45.602;11.904;2023-05-07T03:35:23;26.90;47.50
62575;DHT22;53112;45.602;11.904;2023-05-07T03:37:49;27.00;47.40
62575;DHT22;53112;45.602;11.904;2023-05-07T03:40:15;27.00;47.50
62575;DHT22;53112;45.602;11.904;2023-05-07T03:42:41;26.90;47.40
62575;DHT22;53112;45.602;11.904;2023-05-07T03:45:07;27.00;47.40
62575;DHT22;53112;45.602;11.904;2023-05-07T03:47:33;26.90;47.50
62575;DHT22;53112;45.602;11.904;2023-05-07T03:49:59;26.90;47.40
62575;DHT22;53112;45.602;11.904;2023-05-07T03:52:25;26.90;47.50
62575;DHT22;53112;45.602;11.904;2023-05-07T03:54:52;26.90;47.40
62575;DHT22;53112;45.602;11.904;2023-05-07T03:57:19;26.90;47.50
62575;DHT22;53112;45.602;11.904;2023-05-07T03:59:45;26.90;47.50
62575;DHT22;53112;45.602;11.904;2023-05-07T04:02:11;26.90;47.50
62575;DHT22;53112;45.602;11.904;2023-05-07T04:04:37;26.90;47.50
62575;DHT22;53112;45.602;11.904;2023-05-07T04:07:03;26.90;47.60
62575;DHT22;53112;45.602;11.904;2023-05-07T04:09:30;26.90;47.70
62575;DHT22;53112;45.602;11.904;2023-05-07T04:11:56;26.90;47.70
62575;DHT22;53112;45.602;11.904;2023-05-07T04:14:22;26.90;47.80
62575;DHT22;53112;45.602;11.904;2023-05-07T04:16:47;26.90;47.70
62575;DHT22;53112;45.602;11.904;2023-05-07T04:19:13;26.90;47.70
62575;DHT22;53112;45.602;11.904;2023-05-07T04:21:39;26.80;47.90
62575;DHT22;53112;45.602;11.904;2023-05-07T04:24:06;26.90;47.80
62575;DHT22;53112;45.602;11.904;2023-05-07T04:26:32;26.90;47.70
62575;DHT22;53112;45.602;11.904;2023-05-07T04:28:58;26.80;47.70
62575;DHT22;53112;45.602;11.904;2023-05-07T04:31:24;26.80;47.60
62575;DHT22;53112;45.602;11.904;2023-05-07T04:33:50;26.80;47.60
62575;DHT22;53112;45.602;11.904;2023-05-07T04:36:17;26.80;47.50
62575;DHT22;53112;45.602;11.904;2023-05-07T04:38:43;26.90;47.50
62575;DHT22;53112;45.602;11.904;2023-05-07T04:41:09;26.80;47.50
62575;DHT22;53112;45.602;11.904;2023-05-07T04:43:35;26.80;47.50
62575;DHT22;53112;45.602;11.904;2023-05-07T04:46:01;26.80;47.50
62575;DHT22;53112;45.602;11.904;2023-05-07T04:48:27;26.80;47.60
62575;DHT22;53112;45.602;11.904;2023-05-07T04:50:54;26.80;47.50
62575;DHT22;53112;45.602;11.904;2023-05-07T04:53:20;26.80;47.60
62575;DHT22;53112;45.602;11.904;2023-05-07T04:55:47;26.80;47.60
62575;DHT22;53112;45.602;11.904;2023-05-07T04:58:13;26.80;47.70
62575;DHT22;53112;45.602;11.904;2023-05-07T05:00:39;26.90;47.70
62575;DHT22;53112;45.602;11.904;2023-05-07T06:56:26;21.80;57.00
62575;DHT22;53112;45.602;11.904;2023-05-07T06:58:52;23.10;53.40
62575;DHT22;53112;45.602;11.904;2023-05-07T07:01:17;23.80;51.00
62575;DHT22;53112;45.602;11.904;2023-05-07T07:03:43;24.50;49.20
62575;DHT22;53112;45.602;11.904;2023-05-07T07:06:09;24.40;45.80
62575;DHT22;53112;45.602;11.904;2023-05-07T07:10:16;25.10;45.70
62575;DHT22;53112;45.602;11.904;2023-05-07T07:12:42;25.30;43.70
62575;DHT22;53112;45.602;11.904;2023-05-07T07:15:09;25.30;43.90
62575;DHT22;53112;45.602;11.904;2023-05-07T07:17:35;25.30;43.40
62575;DHT22;53112;45.602;11.904;2023-05-07T07:20:01;25.40;43.40
62575;DHT22;53112;45.602;11.904;2023-05-07T07:22:28;25.50;43.60
62575;DHT22;53112;45.602;11.904;2023-05-07T07:24:54;25.40;44.70
62575;DHT22;53112;45.602;11.904;2023-05-07T07:27:20;25.40;43.70
62575;DHT22;53112;45.602;11.904;2023-05-07T07:29:46;25.30;44.90
62575;DHT22;53112;45.602;11.904;2023-05-07T07:32:12;25.60;43.80
62575;DHT22;53112;45.602;11.904;2023-05-07T07:34:37;25.90;43.30
62575;DHT22;53112;45.602;11.904;2023-05-07T07:37:03;26.30;42.70
62575;DHT22;53112;45.602;11.904;2023-05-07T07:39:34;25.90;41.60
62575;DHT22;53112;45.602;11.904;2023-05-07T07:42:02;25.60;41.80
62575;DHT22;53112;45.602;11.904;2023-05-07T07:44:28;26.40;40.80
62575;DHT22;53112;45.602;11.904;2023-05-07T07:46:54;26.50;40.00
62575;DHT22;53112;45.602;11.904;2023-05-07T07:49:20;26.80;38.60
62575;DHT22;53112;45.602;11.904;2023-05-07T07:51:46;26.80;37.80
62575;DHT22;53112;45.602;11.904;2023-05-07T07:54:12;26.90;39.20
62575;DHT22;53112;45.602;11.904;2023-05-07T07:56:38;27.60;37.90
62575;DHT22;53112;45.602;11.904;2023-05-07T07:59:03;28.20;37.40
62575;DHT22;53112;45.602;11.904;2023-05-07T08:01:30;28.80;35.20
62575;DHT22;53112;45.602;11.904;2023-05-07T08:03:56;28.80;35.30
62575;DHT22;53112;45.602;11.904;2023-05-07T08:06:24;28.70;35.60
62575;DHT22;53112;45.602;11.904;2023-05-07T08:08:51;28.50;34.70
62575;DHT22;53112;45.602;11.904;2023-05-07T08:11:17;28.20;35.20
62575;DHT22;53112;45.602;11.904;2023-05-07T08:13:43;28.40;35.70
62575;DHT22;53112;45.602;11.904;2023-05-07T08:16:09;28.70;34.50
62575;DHT22;53112;45.602;11.904;2023-05-07T08:18:35;28.70;34.70
62575;DHT22;53112;45.602;11.904;2023-05-07T08:21:01;28.70;34.30
62575;DHT22;53112;45.602;11.904;2023-05-07T08:23:27;29.00;34.20
62575;DHT22;53112;45.602;11.904;2023-05-07T08:25:53;29.10;34.10
62575;DHT22;53112;45.602;11.904;2023-05-07T08:28:19;29.40;34.00
62575;DHT22;53112;45.602;11.904;2023-05-07T08:31:43;29.30;33.70
62575;DHT22;53112;45.602;11.904;2023-05-07T08:34:09;29.10;33.70
62575;DHT22;53112;45.602;11.904;2023-05-07T08:36:35;28.80;33.20
62575;DHT22;53112;45.602;11.904;2023-05-07T08:39:01;29.10;34.20
62575;DHT22;53112;45.602;11.904;2023-05-07T08:41:27;29.70;33.10
62575;DHT22;53112;45.602;11.904;2023-05-07T08:43:55;29.80;32.40
62575;DHT22;53112;45.602;11.904;2023-05-07T08:46:24;29.90;32.00
62575;DHT22;53112;45.602;11.904;2023-05-07T08:48:51;30.00;32.20
62575;DHT22;53112;45.602;11.904;2023-05-07T08:51:19;29.90;32.20
62575;DHT22;53112;45.602;11.904;2023-05-07T08:53:46;29.60;33.30
62575;DHT22;53112;45.602;11.904;2023-05-07T08:56:14;30.20;33.50
62575;DHT22;53112;45.602;11.904;2023-05-07T08:58:44;30.30;32.80
62575;DHT22;53112;45.602;11.904;2023-05-07T09:01:13;30.50;32.60
62575;DHT22;53112;45.602;11.904;2023-05-07T09:03:40;30.80;31.90
62575;DHT22;53112;45.602;11.904;2023-05-07T09:06:06;30.30;31.00
62575;DHT22;53112;45.602;11.904;2023-05-07T09:08:33;29.90;30.00
62575;DHT22;53112;45.602;11.904;2023-05-07T09:10:59;29.60;30.50
62575;DHT22;53112;45.602;11.904;2023-05-07T09:13:27;29.10;31.90
62575;DHT22;53112;45.602;11.904;2023-05-07T09:15:53;29.30;31.90
62575;DHT22;53112;45.602;11.904;2023-05-07T09:18:19;28.80;32.40
62575;DHT22;53112;45.602;11.904;2023-05-07T09:20:45;29.00;32.40
62575;DHT22;53112;45.602;11.904;2023-05-07T09:23:10;29.40;31.00
62575;DHT22;53112;45.602;11.904;2023-05-07T09:25:37;29.00;31.10
62575;DHT22;53112;45.602;11.904;2023-05-07T09:28:04;29.00;31.90
62575;DHT22;53112;45.602;11.904;2023-05-07T09:30:35;29.00;32.40
62575;DHT22;53112;45.602;11.904;2023-05-07T09:33:03;29.30;32.70
62575;DHT22;53112;45.602;11.904;2023-05-07T09:35:30;29.70;32.60
62575;DHT22;53112;45.602;11.904;2023-05-07T09:37:57;29.60;32.50
62575;DHT22;53112;45.602;11.904;2023-05-07T09:40:25;30.30;32.60
62575;DHT22;53112;45.602;11.904;2023-05-07T09:42:52;30.60;32.20
62575;DHT22;53112;45.602;11.904;2023-05-07T09:45:38;30.40;32.20
62575;DHT22;53112;45.602;11.904;2023-05-07T09:48:05;30.40;32.50
62575;DHT22;53112;45.602;11.904;2023-05-07T09:50:48;30.30;32.70
62575;DHT22;53112;45.602;11.904;2023-05-07T09:53:17;30.60;32.30
62575;DHT22;53112;45.602;11.904;2023-05-07T09:55:44;31.00;32.30
62575;DHT22;53112;45.602;11.904;2023-05-07T09:58:12;30.80;32.30
62575;DHT22;53112;45.602;11.904;2023-05-07T10:00:40;30.50;33.10
62575;DHT22;53112;45.602;11.904;2023-05-07T10:03:07;29.90;33.90
62575;DHT22;53112;45.602;11.904;2023-05-07T10:05:34;29.90;33.60
62575;DHT22;53112;45.602;11.904;2023-05-07T10:08:01;30.00;33.80
62575;DHT22;53112;45.602;11.904;2023-05-07T10:10:27;30.30;33.50
62575;DHT22;53112;45.602;11.904;2023-05-07T10:12:54;30.40;33.70
62575;DHT22;53112;45.602;11.904;2023-05-07T10:15:21;31.00;33.00
62575;DHT22;53112;45.602;11.904;2023-05-07T10:17:48;30.90;33.50
62575;DHT22;53112;45.602;11.904;2023-05-07T10:20:15;31.10;33.50
62575;DHT22;53112;45.602;11.904;2023-05-07T10:22:46;31.00;33.50
62575;DHT22;53112;45.602;11.904;2023-05-07T10:25:25;30.80;34.00
62575;DHT22;53112;45.602;11.904;2023-05-07T10:27:52;31.60;32.50
62575;DHT22;53112;45.602;11.904;2023-05-07T10:33:03;31.80;32.00
62575;DHT22;53112;45.602;11.904;2023-05-07T10:35:41;31.80;31.70
62575;DHT22;53112;45.602;11.904;2023-05-07T10:38:08;31.70;32.50
62575;DHT22;53112;45.602;11.904;2023-05-07T10:40:35;32.10;32.90
62575;DHT22;53112;45.602;11.904;2023-05-07T10:43:02;32.80;31.80
62575;DHT22;53112;45.602;11.904;2023-05-07T10:45:31;33.70;30.70
62575;DHT22;53112;45.602;11.904;2023-05-07T10:48:16;34.10;29.70
62575;DHT22;53112;45.602;11.904;2023-05-07T10:50:45;34.00;29.90
62575;DHT22;53112;45.602;11.904;2023-05-07T10:55:43;33.30;30.60
62575;DHT22;53112;45.602;11.904;2023-05-07T11:00:50;33.70;30.20
62575;DHT22;53112;45.602;11.904;2023-05-07T11:03:16;34.00;29.90
62575;DHT22;53112;45.602;11.904;2023-05-07T11:05:43;33.30;30.80
62575;DHT22;53112;45.602;11.904;2023-05-07T11:08:09;34.50;29.60
62575;DHT22;53112;45.602;11.904;2023-05-07T11:10:55;35.60;27.60
62575;DHT22;53112;45.602;11.904;2023-05-07T11:13:41;35.50;27.50
62575;DHT22;53112;45.602;11.904;2023-05-07T11:16:17;34.40;28.10
62575;DHT22;53112;45.602;11.904;2023-05-07T11:18:47;33.10;29.60
62575;DHT22;53112;45.602;11.904;2023-05-07T11:21:20;32.70;30.50
62575;DHT22;53112;45.602;11.904;2023-05-07T11:23:57;33.00;30.10
62575;DHT22;53112;45.602;11.904;2023-05-07T11:26:24;34.10;29.00
62575;DHT22;53112;45.602;11.904;2023-05-07T11:28:51;33.90;29.30
62575;DHT22;53112;45.602;11.904;2023-05-07T11:31:22;33.70;29.40
62575;DHT22;53112;45.602;11.904;2023-05-07T11:33:49;34.30;28.80
62575;DHT22;53112;45.602;11.904;2023-05-07T11:36:16;34.10;29.10
62575;DHT22;53112;45.602;11.904;2023-05-07T11:38:42;34.10;29.20
62575;DHT22;53112;45.602;11.904;2023-05-07T11:41:08;34.10;28.80
62575;DHT22;53112;45.602;11.904;2023-05-07T11:43:34;34.50;28.90
62575;DHT22;53112;45.602;11.904;2023-05-07T11:46:12;35.20;28.10
62575;DHT22;53112;45.602;11.904;2023-05-07T11:48:38;34.60;28.20
62575;DHT22;53112;45.602;11.904;2023-05-07T11:51:06;33.60;30.20
62575;DHT22;53112;45.602;11.904;2023-05-07T11:53:42;33.60;29.50
62575;DHT22;53112;45.602;11.904;2023-05-07T11:56:12;33.70;30.00
62575;DHT22;53112;45.602;11.904;2023-05-07T11:58:39;35.50;27.80
62575;DHT22;53112;45.602;11.904;2023-05-07T12:01:08;35.90;26.90
62575;DHT22;53112;45.602;11.904;2023-05-07T12:03:40;36.30;26.90
62575;DHT22;53112;45.602;11.904;2023-05-07T12:08:05;35.90;27.10
62575;DHT22;53112;45.602;11.904;2023-05-07T12:10:31;38.00;24.80
62575;DHT22;53112;45.602;11.904;2023-05-07T12:12:57;40.00;22.70
62575;DHT22;53112;45.602;11.904;2023-05-07T12:15:23;40.60;22.10
62575;DHT22;53112;45.602;11.904;2023-05-07T12:17:49;40.90;22.20
62575;DHT22;53112;45.602;11.904;2023-05-07T12:20:16;41.80;21.40
62575;DHT22;53112;45.602;11.904;2023-05-07T12:22:43;42.90;20.40
62575;DHT22;53112;45.602;11.904;2023-05-07T12:25:09;43.50;19.60
62575;DHT22;53112;45.602;11.904;2023-05-07T12:27:37;43.50;20.20
62575;DHT22;53112;45.602;11.904;2023-05-07T12:30:05;42.00;20.70
62575;DHT22;53112;45.602;11.904;2023-05-07T12:32:31;42.20;21.30
62575;DHT22;53112;45.602;11.904;2023-05-07T12:35:02;42.70;20.20
62575;DHT22;53112;45.602;11.904;2023-05-07T12:37:28;43.30;19.90
62575;DHT22;53112;45.602;11.904;2023-05-07T12:40:06;42.30;20.80
62575;DHT22;53112;45.602;11.904;2023-05-07T12:42:37;42.30;20.60
62575;DHT22;53112;45.602;11.904;2023-05-07T12:45:13;41.30;21.20
62575;DHT22;53112;45.602;11.904;2023-05-07T12:47:39;42.00;20.30
62575;DHT22;53112;45.602;11.904;2023-05-07T12:50:06;38.70;23.70
62575;DHT22;53112;45.602;11.904;2023-05-07T12:52:33;38.70;23.90
62575;DHT22;53112;45.602;11.904;2023-05-07T12:55:05;38.00;24.40
62575;DHT22;53112;45.602;11.904;2023-05-07T12:57:40;36.10;26.40
62575;DHT22;53112;45.602;11.904;2023-05-07T13:00:07;35.60;27.10
62575;DHT22;53112;45.602;11.904;2023-05-07T13:02:37;35.70;27.30
62575;DHT22;53112;45.602;11.904;2023-05-07T13:05:03;36.30;26.80
62575;DHT22;53112;45.602;11.904;2023-05-07T13:07:29;35.60;27.40
62575;DHT22;53112;45.602;11.904;2023-05-07T13:09:55;35.60;27.50
62575;DHT22;53112;45.602;11.904;2023-05-07T13:12:21;34.80;28.50
62575;DHT22;53112;45.602;11.904;2023-05-07T13:14:47;35.50;27.60
62575;DHT22;53112;45.602;11.904;2023-05-07T13:17:13;35.10;28.10
62575;DHT22;53112;45.602;11.904;2023-05-07T13:19:39;33.80;29.80
62575;DHT22;53112;45.602;11.904;2023-05-07T13:22:05;34.50;28.90
62575;DHT22;53112;45.602;11.904;2023-05-07T13:24:31;33.70;30.00
62575;DHT22;53112;45.602;11.904;2023-05-07T13:26:57;32.40;32.00
62575;DHT22;53112;45.602;11.904;2023-05-07T13:29:23;32.70;31.80
62575;DHT22;53112;45.602;11.904;2023-05-07T13:31:54;33.00;31.30
62575;DHT22;53112;45.602;11.904;2023-05-07T13:34:21;33.00;31.90
62575;DHT22;53112;45.602;11.904;2023-05-07T13:36:46;33.40;31.30
62575;DHT22;53112;45.602;11.904;2023-05-07T13:39:12;33.10;31.40
62575;DHT22;53112;45.602;11.904;2023-05-07T13:41:38;32.40;32.50
62575;DHT22;53112;45.602;11.904;2023-05-07T13:44:04;32.10;33.20
62575;DHT22;53112;45.602;11.904;2023-05-07T13:46:30;32.70;32.00
62575;DHT22;53112;45.602;11.904;2023-05-07T13:48:56;32.10;32.80
62575;DHT22;53112;45.602;11.904;2023-05-07T13:51:22;31.80;33.10
62575;DHT22;53112;45.602;11.904;2023-05-07T13:53:48;31.20;34.50
62575;DHT22;53112;45.602;11.904;2023-05-07T13:56:14;31.60;34.80
62575;DHT22;53112;45.602;11.904;2023-05-07T13:58:40;31.40;34.80
62575;DHT22;53112;45.602;11.904;2023-05-07T14:01:06;31.80;34.60
62575;DHT22;53112;45.602;11.904;2023-05-07T14:03:32;32.10;34.50
62575;DHT22;53112;45.602;11.904;2023-05-07T14:05:59;32.00;34.20
62575;DHT22;53112;45.602;11.904;2023-05-07T14:08:27;32.50;33.60
62575;DHT22;53112;45.602;11.904;2023-05-07T14:10:53;31.60;34.50
62575;DHT22;53112;45.602;11.904;2023-05-07T14:13:19;31.90;34.30
62575;DHT22;53112;45.602;11.904;2023-05-07T14:15:45;32.10;34.30
62575;DHT22;53112;45.602;11.904;2023-05-07T14:18:15;32.00;34.50
62575;DHT22;53112;45.602;11.904;2023-05-07T14:20:41;32.40;34.00
62575;DHT22;53112;45.602;11.904;2023-05-07T14:23:12;32.30;33.90
62575;DHT22;53112;45.602;11.904;2023-05-07T14:25:38;32.60;33.90
62575;DHT22;53112;45.602;11.904;2023-05-07T14:28:04;32.70;33.90
62575;DHT22;53112;45.602;11.904;2023-05-07T14:30:30;32.40;33.50
62575;DHT22;53112;45.602;11.904;2023-05-07T14:32:56;32.50;34.00
62575;DHT22;53112;45.602;11.904;2023-05-07T14:35:22;32.50;33.80
62575;DHT22;53112;45.602;11.904;2023-05-07T14:37:47;32.60;33.80
62575;DHT22;53112;45.602;11.904;2023-05-07T14:40:13;32.60;33.30
62575;DHT22;53112;45.602;11.904;2023-05-07T14:42:40;32.80;33.10
62575;DHT22;53112;45.602;11.904;2023-05-07T14:45:07;31.90;34.80
62575;DHT22;53112;45.602;11.904;2023-05-07T14:47:34;31.50;35.70
62575;DHT22;53112;45.602;11.904;2023-05-07T14:50:00;31.20;36.20
62575;DHT22;53112;45.602;11.904;2023-05-07T14:52:26;30.80;36.90
62575;DHT22;53112;45.602;11.904;2023-05-07T14:54:52;31.30;36.00
62575;DHT22;53112;45.602;11.904;2023-05-07T14:57:19;31.70;35.40
62575;DHT22;53112;45.602;11.904;2023-05-07T14:59:45;32.20;34.80
62575;DHT22;53112;45.602;11.904;2023-05-07T15:02:12;31.60;35.80
62575;DHT22;53112;45.602;11.904;2023-05-07T15:04:39;31.70;35.00
62575;DHT22;53112;45.602;11.904;2023-05-07T15:07:14;31.40;35.70
62575;DHT22;53112;45.602;11.904;2023-05-07T15:09:44;30.80;36.70
62575;DHT22;53112;45.602;11.904;2023-05-07T15:12:11;31.20;36.30
62575;DHT22;53112;45.602;11.904;2023-05-07T15:14:38;31.60;35.60
62575;DHT22;53112;45.602;11.904;2023-05-07T15:17:04;31.80;35.30
62575;DHT22;53112;45.602;11.904;2023-05-07T15:19:30;31.60;35.50
62575;DHT22;53112;45.602;11.904;2023-05-07T15:22:00;32.10;34.70
62575;DHT22;53112;45.602;11.904;2023-05-07T15:24:29;32.00;34.70
62575;DHT22;53112;45.602;11.904;2023-05-07T15:26:55;32.20;34.90
62575;DHT22;53112;45.602;11.904;2023-05-07T15:29:22;32.50;34.30
62575;DHT22;53112;45.602;11.904;2023-05-07T15:31:48;32.40;34.00
62575;DHT22;53112;45.602;11.904;2023-05-07T15:34:14;32.40;33.90
62575;DHT22;53112;45.602;11.904;2023-05-07T15:36:42;31.40;35.40
62575;DHT22;53112;45.602;11.904;2023-05-07T15:39:09;31.70;34.70
62575;DHT22;53112;45.602;11.904;2023-05-07T15:41:36;31.60;35.10
62575;DHT22;53112;45.602;11.904;2023-05-07T15:44:03;32.10;34.80
62575;DHT22;53112;45.602;11.904;2023-05-07T15:46:29;32.00;34.10
62575;DHT22;53112;45.602;11.904;2023-05-07T15:48:56;31.90;34.50
62575;DHT22;53112;45.602;11.904;2023-05-07T15:51:22;32.10;34.10
62575;DHT22;53112;45.602;11.904;2023-05-07T15:53:48;31.90;34.30
62575;DHT22;53112;45.602;11.904;2023-05-07T15:56:14;31.90;34.50
62575;DHT22;53112;45.602;11.904;2023-05-07T15:58:40;31.90;34.30
62575;DHT22;53112;45.602;11.904;2023-05-07T16:01:06;31.80;35.10
62575;DHT22;53112;45.602;11.904;2023-05-07T16:03:33;31.50;35.90
62575;DHT22;53112;45.602;11.904;2023-05-07T16:06:02;31.60;36.20
62575;DHT22;53112;45.602;11.904;2023-05-07T16:08:28;31.30;36.60
62575;DHT22;53112;45.602;11.904;2023-05-07T16:10:54;31.10;37.10
62575;DHT22;53112;45.602;11.904;2023-05-07T16:13:20;31.10;37.10
62575;DHT22;53112;45.602;11.904;2023-05-07T16:15:49;30.70;37.70
62575;DHT22;53112;45.602;11.904;2023-05-07T16:18:15;30.10;39.00
62575;DHT22;53112;45.602;11.904;2023-05-07T16:20:42;30.10;39.00
62575;DHT22;53112;45.602;11.904;2023-05-07T16:23:09;30.00;39.80
62575;DHT22;53112;45.602;11.904;2023-05-07T16:25:35;30.00;39.70
62575;DHT22;53112;45.602;11.904;2023-05-07T16:28:01;29.60;40.40
62575;DHT22;53112;45.602;11.904;2023-05-07T16:30:27;29.50;40.70
62575;DHT22;53112;45.602;11.904;2023-05-07T16:32:53;29.60;40.80
62575;DHT22;53112;45.602;11.904;2023-05-07T16:35:19;29.60;40.70
62575;DHT22;53112;45.602;11.904;2023-05-07T16:37:45;29.60;40.50
62575;DHT22;53112;45.602;11.904;2023-05-07T16:40:11;29.50;40.70
62575;DHT22;53112;45.602;11.904;2023-05-07T16:42:38;29.30;40.40
62575;DHT22;53112;45.602;11.904;2023-05-07T16:45:04;29.10;38.90
62575;DHT22;53112;45.602;11.904;2023-05-07T16:47:31;28.80;38.60
62575;DHT22;53112;45.602;11.904;2023-05-07T16:49:58;28.80;38.30
62575;DHT22;53112;45.602;11.904;2023-05-07T16:52:26;28.30;37.90
62575;DHT22;53112;45.602;11.904;2023-05-07T16:54:53;28.80;37.50
62575;DHT22;53112;45.602;11.904;2023-05-07T16:57:23;28.90;37.00
62575;DHT22;53112;45.602;11.904;2023-05-07T16:59:51;28.90;36.80
62575;DHT22;53112;45.602;11.904;2023-05-07T17:02:17;28.90;36.80
62575;DHT22;53112;45.602;11.904;2023-05-07T17:04:43;28.90;36.80
62575;DHT22;53112;45.602;11.904;2023-05-07T17:07:10;28.60;37.40
62575;DHT22;53112;45.602;11.904;2023-05-07T17:09:36;28.30;38.10
